createdAt,value
2022-10-31T00:01:39.041Z,1.15
2022-10-31T00:04:07.522Z,1.13
2022-10-31T00:06:35.727Z,1.05
2022-10-31T00:09:06.105Z,0.75
2022-10-31T00:11:34.641Z,1.42
2022-10-31T00:14:03.336Z,1.08
2022-10-31T00:19:02.513Z,0.63
2022-10-31T00:21:32.245Z,0.85
2022-10-31T00:24:01.446Z,0.95
2022-10-31T00:26:33.294Z,0.60
2022-10-31T00:29:01.947Z,1.10
2022-10-31T00:33:59.669Z,0.93
2022-10-31T00:36:28.660Z,0.70
2022-10-31T00:38:56.964Z,1.38
2022-10-31T00:41:25.824Z,0.88
2022-10-31T00:43:53.933Z,0.60
2022-10-31T00:46:22.166Z,0.85
2022-10-31T00:48:52.190Z,0.60
2022-10-31T00:51:20.499Z,0.93
2022-10-31T00:53:48.655Z,0.52
2022-10-31T00:56:16.829Z,0.57
2022-10-31T00:58:45.143Z,0.50
2022-10-31T01:01:13.448Z,0.70
2022-10-31T01:03:41.742Z,0.60
2022-10-31T01:06:14.727Z,0.57
2022-10-31T01:08:43.068Z,0.80
2022-10-31T01:11:17.275Z,0.77
2022-10-31T01:13:46.549Z,0.90
2022-10-31T01:16:19.662Z,0.35
2022-10-31T01:18:48.495Z,0.57
2022-10-31T01:23:46.621Z,0.65
2022-10-31T01:26:20.645Z,0.40
2022-10-31T01:28:51.183Z,0.43
2022-10-31T01:31:21.274Z,0.55
2022-10-31T01:33:50.352Z,0.40
2022-10-31T01:38:53.449Z,0.40
2022-10-31T01:41:25.154Z,0.65
2022-10-31T01:43:59.598Z,0.60
2022-10-31T01:46:47.823Z,0.47
2022-10-31T01:49:39.617Z,0.40
2022-10-31T01:52:26.195Z,0.43
2022-10-31T01:55:04.638Z,0.52
2022-10-31T01:57:34.952Z,0.40
2022-10-31T02:00:08.332Z,0.40
2022-10-31T02:02:43.337Z,0.38
2022-10-31T02:05:17.725Z,0.50
2022-10-31T02:07:54.604Z,0.30
2022-10-31T02:10:30.942Z,0.40
2022-10-31T02:13:01.476Z,0.32
2022-10-31T02:15:31.621Z,0.60
2022-10-31T02:18:00.068Z,0.50
2022-10-31T02:23:27.857Z,0.32
2022-10-31T02:26:17.820Z,0.40
2022-10-31T02:29:07.581Z,0.65
2022-10-31T02:32:04.842Z,0.47
2022-10-31T02:34:38.997Z,0.60
2022-10-31T02:37:26.693Z,0.70
2022-10-31T02:42:57.613Z,0.40
2022-10-31T02:45:53.527Z,0.60
2022-10-31T02:48:28.902Z,0.60
2022-10-31T02:51:05.263Z,0.68
2022-10-31T02:53:38.177Z,0.60
2022-10-31T02:56:12.743Z,0.65
2022-10-31T02:58:52.104Z,0.50
2022-10-31T03:01:54.183Z,0.50
2022-10-31T03:04:57.836Z,0.70
2022-10-31T03:07:43.767Z,0.50
2022-10-31T03:10:43.497Z,0.73
2022-10-31T03:13:33.967Z,0.85
2022-10-31T03:16:25.703Z,0.40
2022-10-31T03:19:03.210Z,0.65
2022-10-31T03:21:37.638Z,0.52
2022-10-31T03:24:08.392Z,0.80
2022-10-31T03:26:44.478Z,0.82
2022-10-31T03:29:16.927Z,0.80
2022-10-31T03:31:52.526Z,0.43
2022-10-31T03:34:22.861Z,0.95
2022-10-31T03:36:56.519Z,0.65
2022-10-31T03:39:25.782Z,0.93
2022-10-31T03:42:09.002Z,0.63
2022-10-31T03:44:40.206Z,0.80
2022-10-31T03:47:09.013Z,0.50
2022-10-31T03:49:37.545Z,0.73
2022-10-31T03:52:28.221Z,0.60
2022-10-31T03:55:14.448Z,0.80
2022-10-31T03:58:09.717Z,0.80
2022-10-31T04:00:43.417Z,0.90
2022-10-31T04:03:26.941Z,0.60
2022-10-31T04:06:01.348Z,0.70
2022-10-31T04:08:33.113Z,0.65
2022-10-31T04:11:04.283Z,0.90
2022-10-31T04:13:37.314Z,0.90
2022-10-31T04:16:16.094Z,1.00
2022-10-31T04:18:46.280Z,0.82
2022-10-31T04:21:14.622Z,1.00
2022-10-31T04:23:43.680Z,0.80
2022-10-31T04:26:19.556Z,1.10
2022-10-31T04:31:16.562Z,1.10
2022-10-31T04:33:46.968Z,1.02
2022-10-31T04:36:15.146Z,0.80
2022-10-31T04:38:44.126Z,0.90
2022-10-31T04:41:25.626Z,0.77
2022-10-31T04:44:02.401Z,1.02
2022-10-31T04:46:30.740Z,0.93
2022-10-31T04:49:00.115Z,0.88
2022-10-31T04:51:28.469Z,1.20
2022-10-31T04:53:57.160Z,1.15
2022-10-31T04:56:54.416Z,0.90
2022-10-31T04:59:24.072Z,1.23
2022-10-31T05:01:54.898Z,1.25
2022-10-31T05:04:35.869Z,0.80
2022-10-31T05:07:04.205Z,1.45
2022-10-31T05:09:32.259Z,0.88
2022-10-31T05:12:00.628Z,0.82
2022-10-31T05:14:48.612Z,1.23
2022-10-31T05:17:35.744Z,1.15
2022-10-31T05:20:23.934Z,1.70
2022-10-31T05:23:15.079Z,1.10
2022-10-31T05:28:11.315Z,1.23
2022-10-31T05:30:39.778Z,0.82
2022-10-31T05:33:11.806Z,0.70
2022-10-31T05:35:42.687Z,1.15
2022-10-31T05:38:29.905Z,1.20
2022-10-31T05:41:02.084Z,0.98
2022-10-31T05:43:32.702Z,0.98
2022-10-31T05:46:02.472Z,1.10
2022-10-31T05:48:48.773Z,0.82
2022-10-31T05:51:39.987Z,1.08
2022-10-31T05:54:12.061Z,1.10
2022-10-31T05:56:46.283Z,1.73
2022-10-31T05:59:14.541Z,1.02
2022-10-31T06:01:42.751Z,1.83
2022-10-31T06:04:26.363Z,1.30
2022-10-31T06:09:30.640Z,1.30
2022-10-31T06:11:58.979Z,1.13
2022-10-31T06:14:27.188Z,1.38
2022-10-31T06:16:57.866Z,1.13
2022-10-31T06:19:54.889Z,1.10
2022-10-31T06:22:26.529Z,1.23
2022-10-31T06:24:56.352Z,1.27
2022-10-31T06:27:44.618Z,1.52
2022-10-31T06:30:16.958Z,1.13
2022-10-31T06:32:47.646Z,1.92
2022-10-31T06:35:15.993Z,1.63
2022-10-31T06:37:46.811Z,1.73
2022-10-31T06:40:29.287Z,1.50
2022-10-31T06:43:15.869Z,1.40
2022-10-31T06:45:44.988Z,1.45
2022-10-31T06:48:36.277Z,1.00
2022-10-31T06:51:35.900Z,1.40
2022-10-31T06:54:04.217Z,1.75
2022-10-31T06:56:33.493Z,1.58
2022-10-31T06:59:01.710Z,1.50
2022-10-31T07:01:52.692Z,1.33
2022-10-31T07:09:21.153Z,1.70
2022-10-31T07:11:49.684Z,1.50
2022-10-31T07:14:17.957Z,1.55
2022-10-31T07:16:49.493Z,1.55
2022-10-31T07:19:19.158Z,1.60
2022-10-31T07:21:48.419Z,1.88
2022-10-31T07:26:45.033Z,2.17
2022-10-31T07:29:13.200Z,1.73
2022-10-31T07:31:41.442Z,1.85
2022-10-31T07:34:17.716Z,2.10
2022-10-31T07:37:04.154Z,1.95
2022-10-31T07:39:32.377Z,1.85
2022-10-31T07:42:01.193Z,2.35
2022-10-31T07:44:29.882Z,2.05
2022-10-31T07:47:16.361Z,1.88
2022-10-31T07:50:04.942Z,1.90
2022-10-31T07:53:03.930Z,1.90
2022-10-31T07:57:11.600Z,2.53
2022-10-31T07:59:40.956Z,1.95
2022-10-31T08:05:01.159Z,2.30
2022-10-31T08:07:48.422Z,1.90
2022-10-31T08:10:22.461Z,1.92
2022-10-31T08:13:04.024Z,1.60
2022-10-31T08:15:33.643Z,1.95
2022-10-31T08:18:02.445Z,1.63
2022-10-31T08:20:31.329Z,1.95
2022-10-31T08:23:05.089Z,2.45
2022-10-31T08:25:38.559Z,2.28
2022-10-31T08:28:08.744Z,2.10
2022-10-31T08:30:39.047Z,2.38
2022-10-31T08:33:25.871Z,2.30
2022-10-31T08:36:12.253Z,2.40
2022-10-31T08:39:01.876Z,1.75
2022-10-31T08:41:32.140Z,1.88
2022-10-31T08:44:01.873Z,1.70
2022-10-31T08:46:30.243Z,1.65
2022-10-31T08:48:58.571Z,1.77
2022-10-31T08:51:26.973Z,1.58
2022-10-31T08:53:57.160Z,1.75
2022-10-31T08:56:37.355Z,2.05
2022-10-31T08:59:14.467Z,1.75
2022-10-31T09:02:00.854Z,1.75
2022-10-31T09:04:30.654Z,2.00
2022-10-31T09:07:20.062Z,2.15
2022-10-31T09:09:47.813Z,1.80
2022-10-31T09:12:16.056Z,1.52
2022-10-31T09:15:12.753Z,1.80
2022-10-31T09:18:14.272Z,1.92
2022-10-31T09:26:08.030Z,2.33
2022-10-31T09:28:42.228Z,2.05
2022-10-31T09:31:13.382Z,1.42
2022-10-31T09:33:47.291Z,1.52
2022-10-31T09:36:35.265Z,1.63
2022-10-31T09:39:04.962Z,1.65
2022-10-31T09:42:06.318Z,1.88
2022-10-31T09:44:42.877Z,1.77
2022-10-31T09:47:46.365Z,1.50
2022-10-31T09:50:52.911Z,1.40
2022-10-31T09:54:03.154Z,1.60
2022-10-31T09:56:33.668Z,2.08
2022-10-31T09:59:04.403Z,1.65
2022-10-31T10:02:15.557Z,2.00
2022-10-31T10:04:56.630Z,2.10
2022-10-31T10:07:34.611Z,1.92
2022-10-31T10:10:32.289Z,2.03
2022-10-31T10:13:52.650Z,2.58
2022-10-31T10:16:59.241Z,1.83
2022-10-31T10:19:33.208Z,2.00
2022-10-31T10:22:19.702Z,2.38
2022-10-31T10:25:17.616Z,1.85
2022-10-31T10:28:05.178Z,1.73
2022-10-31T10:30:45.627Z,2.30
2022-10-31T10:33:35.727Z,1.63
2022-10-31T10:36:15.282Z,2.38
2022-10-31T10:39:04.710Z,2.35
2022-10-31T10:41:34.934Z,1.95
2022-10-31T10:44:06.955Z,1.60
2022-10-31T10:46:53.246Z,2.03
2022-10-31T10:49:52.886Z,1.65
2022-10-31T10:52:50.768Z,1.73
2022-10-31T10:55:30.410Z,2.28
2022-10-31T10:58:03.425Z,2.05
2022-10-31T11:00:36.293Z,1.70
2022-10-31T11:03:05.383Z,1.90
2022-10-31T11:05:49.311Z,2.10
2022-10-31T11:08:37.616Z,2.30
2022-10-31T11:11:11.626Z,2.30
2022-10-31T11:13:44.216Z,2.42
2022-10-31T11:16:29.438Z,2.42
2022-10-31T11:19:11.307Z,2.28
2022-10-31T11:21:40.882Z,1.75
2022-10-31T11:24:11.980Z,2.10
2022-10-31T11:26:41.984Z,1.75
2022-10-31T11:29:27.170Z,2.25
2022-10-31T11:31:58.462Z,1.73
2022-10-31T11:34:33.673Z,1.92
2022-10-31T11:37:18.526Z,2.25
2022-10-31T11:39:52.968Z,2.28
2022-10-31T11:42:31.457Z,2.13
2022-10-31T11:44:59.862Z,1.83
2022-10-31T11:47:31.470Z,1.73
2022-10-31T11:50:02.430Z,1.80
2022-10-31T11:52:33.845Z,1.95
2022-10-31T11:55:14.140Z,2.08
2022-10-31T11:57:51.972Z,1.90
2022-10-31T12:00:49.769Z,1.35
2022-10-31T12:03:33.508Z,1.30
2022-10-31T12:06:38.329Z,1.70
2022-10-31T12:09:34.959Z,1.75
2022-10-31T12:12:21.699Z,1.38
2022-10-31T12:15:11.466Z,2.15
2022-10-31T12:18:14.260Z,1.90
2022-10-31T12:21:00.737Z,1.65
2022-10-31T12:23:45.125Z,1.77
2022-10-31T12:26:28.626Z,1.80
2022-10-31T12:29:07.872Z,1.52
2022-10-31T12:31:51.563Z,1.40
2022-10-31T12:34:46.153Z,1.75
2022-10-31T12:37:26.024Z,1.60
2022-10-31T12:40:30.887Z,1.70
2022-10-31T12:43:21.137Z,1.17
2022-10-31T12:45:55.208Z,1.48
2022-10-31T12:48:45.024Z,1.67
2022-10-31T12:51:31.587Z,1.60
2022-10-31T12:54:15.384Z,1.95
2022-10-31T12:56:59.085Z,1.90
2022-10-31T12:59:59.247Z,1.13
2022-10-31T13:02:41.710Z,1.25
2022-10-31T13:05:33.306Z,2.03
2022-10-31T13:08:01.565Z,1.05
2022-10-31T13:10:38.950Z,1.73
2022-10-31T13:13:33.698Z,2.20
2022-10-31T13:16:24.165Z,1.27
2022-10-31T13:19:16.141Z,1.45
2022-10-31T13:22:08.137Z,1.60
2022-10-31T13:25:03.910Z,1.63
2022-10-31T13:27:54.481Z,1.27
2022-10-31T13:30:24.962Z,1.67
2022-10-31T13:32:56.245Z,1.58
2022-10-31T13:35:34.763Z,1.40
2022-10-31T13:38:17.883Z,1.63
2022-10-31T13:41:15.086Z,1.85
2022-10-31T13:44:15.410Z,1.20
2022-10-31T13:46:45.371Z,1.50
2022-10-31T13:49:31.911Z,1.40
2022-10-31T13:52:12.081Z,1.45
2022-10-31T13:54:44.628Z,1.13
2022-10-31T13:57:18.983Z,1.92
2022-10-31T14:00:00.378Z,1.02
2022-10-31T14:02:32.082Z,1.02
2022-10-31T14:05:21.350Z,1.38
2022-10-31T14:07:49.976Z,1.55
2022-10-31T14:10:52.111Z,1.10
2022-10-31T14:13:39.287Z,1.38
2022-10-31T14:16:26.770Z,1.23
2022-10-31T14:19:22.366Z,1.30
2022-10-31T14:21:51.566Z,1.20
2022-10-31T14:24:25.527Z,0.88
2022-10-31T14:26:59.224Z,1.23
2022-10-31T14:29:35.265Z,1.30
2022-10-31T14:32:17.313Z,0.93
2022-10-31T14:34:59.120Z,1.25
2022-10-31T14:37:36.506Z,1.40
2022-10-31T14:40:27.313Z,1.48
2022-10-31T14:43:19.911Z,1.70
2022-10-31T14:45:57.277Z,0.70
2022-10-31T14:49:02.661Z,1.25
2022-10-31T14:51:43.653Z,1.13
2022-10-31T14:54:37.844Z,0.93
2022-10-31T14:57:18.164Z,1.15
2022-10-31T14:59:57.877Z,1.00
2022-10-31T15:02:45.376Z,0.88
2022-10-31T15:05:15.331Z,0.88
2022-10-31T15:07:57.210Z,1.45
2022-10-31T15:10:28.634Z,1.27
2022-10-31T15:12:57.599Z,1.33
2022-10-31T15:15:28.048Z,1.15
2022-10-31T15:18:01.701Z,1.33
2022-10-31T15:20:44.053Z,1.90
2022-10-31T15:23:18.345Z,0.93
2022-10-31T15:25:47.578Z,1.08
2022-10-31T15:28:18.139Z,0.82
2022-10-31T15:30:54.830Z,1.50
2022-10-31T15:33:32.421Z,0.82
2022-10-31T15:36:06.511Z,1.10
2022-10-31T15:38:34.937Z,1.25
2022-10-31T15:41:07.761Z,1.55
2022-10-31T15:43:38.956Z,1.00
2022-10-31T15:46:10.825Z,1.13
2022-10-31T15:48:39.883Z,1.73
2022-10-31T15:51:08.071Z,1.02
2022-10-31T15:53:47.677Z,1.30
2022-10-31T15:56:29.442Z,1.33
2022-10-31T16:03:32.310Z,1.40
2022-10-31T16:06:03.727Z,1.45
2022-10-31T16:10:03.643Z,1.30
2022-10-31T16:12:47.457Z,1.27
2022-10-31T16:15:18.167Z,2.00
2022-10-31T16:17:51.186Z,1.52
2022-10-31T16:20:28.377Z,1.30
2022-10-31T16:22:58.447Z,1.40
2022-10-31T16:25:38.034Z,1.27
2022-10-31T16:28:15.845Z,2.00
2022-10-31T16:30:48.470Z,1.58
2022-10-31T16:33:27.313Z,0.90
2022-10-31T16:36:09.602Z,1.33
2022-10-31T16:38:44.389Z,1.30
2022-10-31T16:41:12.537Z,1.45
2022-10-31T16:43:40.567Z,1.00
2022-10-31T16:46:16.722Z,1.58
2022-10-31T16:48:44.893Z,1.23
2022-10-31T16:51:13.153Z,1.33
2022-10-31T16:53:46.400Z,1.48
2022-10-31T16:56:24.128Z,1.38
2022-10-31T16:58:52.449Z,1.35
2022-10-31T17:01:20.717Z,1.02
2022-10-31T17:03:48.986Z,1.10
2022-10-31T17:06:17.433Z,1.80
2022-10-31T17:08:45.888Z,1.25
2022-10-31T17:11:26.665Z,1.20
2022-10-31T17:13:56.029Z,0.90
2022-10-31T17:16:24.446Z,0.80
2022-10-31T17:18:52.577Z,1.45
2022-10-31T17:21:23.909Z,0.98
2022-10-31T17:23:52.522Z,1.55
2022-10-31T17:26:21.060Z,1.17
2022-10-31T17:31:28.477Z,1.00
2022-10-31T17:34:02.121Z,1.58
2022-10-31T17:36:33.244Z,1.20
2022-10-31T17:39:01.598Z,1.15
2022-10-31T17:41:29.759Z,0.75
2022-10-31T17:43:58.663Z,0.98
2022-10-31T17:46:27.284Z,1.25
2022-10-31T17:51:23.261Z,0.87
2022-10-31T17:53:51.581Z,0.93
2022-10-31T17:56:19.727Z,1.13
2022-10-31T17:58:48.044Z,0.90
2022-10-31T18:01:18.322Z,0.80
2022-10-31T18:03:46.508Z,1.00
2022-10-31T18:06:14.785Z,0.73
2022-10-31T18:08:44.718Z,0.82
2022-10-31T18:11:21.482Z,1.25
2022-10-31T18:13:54.813Z,1.65
2022-10-31T18:16:24.440Z,1.02
2022-10-31T18:18:58.341Z,2.25
2022-10-31T18:21:27.071Z,2.88
2022-10-31T18:24:00.023Z,3.03
2022-10-31T18:26:28.971Z,2.30
2022-10-31T18:28:57.276Z,2.78
2022-10-31T18:31:25.761Z,2.22
2022-10-31T18:33:55.191Z,2.90
2022-10-31T18:36:24.734Z,2.67
2022-10-31T18:38:52.995Z,2.90
2022-10-31T18:41:21.527Z,2.80
2022-10-31T18:43:49.822Z,2.53
2022-10-31T18:46:18.480Z,2.58
2022-10-31T18:48:46.702Z,3.10
2022-10-31T18:51:15.410Z,2.50
2022-10-31T18:56:12.212Z,2.53
2022-10-31T18:58:43.182Z,2.38
2022-10-31T19:01:13.051Z,2.55
2022-10-31T19:03:41.746Z,2.25
2022-10-31T19:06:10.917Z,1.70
2022-10-31T19:08:40.244Z,1.88
2022-10-31T19:11:11.366Z,2.30
2022-10-31T19:13:40.780Z,1.88
2022-10-31T19:16:13.941Z,2.00
2022-10-31T19:18:43.785Z,1.38
2022-10-31T19:21:18.806Z,1.75
2022-10-31T19:23:47.042Z,2.05
2022-10-31T19:26:15.554Z,1.70
2022-10-31T19:28:43.866Z,1.88
2022-10-31T19:31:12.109Z,2.40
2022-10-31T19:33:40.383Z,1.17
2022-10-31T19:36:11.836Z,1.98
2022-10-31T19:38:43.257Z,2.55
2022-10-31T19:41:17.082Z,1.95
2022-10-31T19:43:45.269Z,1.90
2022-10-31T19:46:22.151Z,2.10
2022-10-31T19:48:56.177Z,2.13
2022-10-31T19:51:24.579Z,2.38
2022-10-31T19:53:53.017Z,1.60
2022-10-31T19:56:23.589Z,1.83
2022-10-31T19:58:51.830Z,1.30
2022-10-31T20:01:22.637Z,1.40
2022-10-31T20:03:51.387Z,1.30
2022-10-31T20:08:52.321Z,1.23
2022-10-31T20:13:48.547Z,1.40
2022-10-31T20:16:17.575Z,1.35
2022-10-31T20:18:45.890Z,1.27
2022-10-31T20:21:17.279Z,2.33
2022-10-31T20:23:45.975Z,1.73
2022-10-31T20:28:43.932Z,1.30
2022-10-31T20:31:19.799Z,1.75
2022-10-31T20:33:48.989Z,1.45
2022-10-31T20:36:17.618Z,2.00
2022-10-31T20:41:15.417Z,1.60
2022-10-31T20:43:44.134Z,1.30
2022-10-31T20:46:17.987Z,1.58
2022-10-31T20:48:46.526Z,1.42
2022-10-31T20:51:21.232Z,1.70
2022-10-31T20:53:51.030Z,0.90
2022-10-31T20:56:21.437Z,1.25
2022-10-31T20:58:50.277Z,1.38
2022-10-31T21:01:21.464Z,1.08
2022-10-31T21:03:50.607Z,1.27
2022-10-31T21:06:20.083Z,1.15
2022-10-31T21:08:48.371Z,1.38
2022-10-31T21:11:19.208Z,0.95
2022-10-31T21:13:49.004Z,1.20
2022-10-31T21:16:21.792Z,1.10
2022-10-31T21:18:50.922Z,0.88
2022-10-31T21:21:28.893Z,1.05
2022-10-31T21:24:06.176Z,1.05
2022-10-31T21:26:37.916Z,1.17
2022-10-31T21:29:07.601Z,0.70
2022-10-31T21:31:45.218Z,1.02
2022-10-31T21:34:13.443Z,0.88
2022-10-31T21:36:41.718Z,0.75
2022-10-31T21:39:10.695Z,1.10
2022-10-31T21:41:38.928Z,1.50
2022-10-31T21:44:07.237Z,0.82
2022-10-31T21:46:35.570Z,0.95
2022-10-31T21:49:04.637Z,1.25
2022-10-31T21:51:35.506Z,0.90
2022-10-31T21:54:04.664Z,0.90
2022-10-31T21:56:33.504Z,1.20
2022-10-31T21:59:02.652Z,1.25
2022-10-31T22:01:31.330Z,1.15
2022-10-31T22:04:00.246Z,1.58
2022-10-31T22:06:29.431Z,1.70
2022-10-31T22:09:00.270Z,1.33
2022-10-31T22:11:28.803Z,1.33
2022-10-31T22:13:59.322Z,1.38
2022-10-31T22:16:29.717Z,1.00
2022-10-31T22:19:00.474Z,1.25
2022-10-31T22:21:29.480Z,1.35
2022-10-31T22:24:02.042Z,1.17
2022-10-31T22:26:33.771Z,1.50
2022-10-31T22:31:32.384Z,1.50
2022-10-31T22:34:00.946Z,1.50
2022-10-31T22:36:30.979Z,1.17
2022-10-31T22:38:59.902Z,2.17
2022-10-31T22:41:32.601Z,1.42
2022-10-31T22:44:00.931Z,1.33
2022-10-31T22:46:31.626Z,1.38
2022-10-31T22:49:03.342Z,1.33
2022-10-31T22:51:37.223Z,1.55
2022-10-31T22:54:07.663Z,1.30
2022-10-31T22:56:35.894Z,1.05
2022-10-31T22:59:04.340Z,1.13
2022-10-31T23:01:34.430Z,1.17
2022-10-31T23:04:03.089Z,0.88
2022-10-31T23:06:32.766Z,1.30
2022-10-31T23:09:03.187Z,1.40
2022-10-31T23:11:34.241Z,1.17
2022-10-31T23:14:15.795Z,1.58
2022-10-31T23:16:45.701Z,1.50
2022-10-31T23:19:19.470Z,1.50
2022-10-31T23:21:50.154Z,1.30
2022-10-31T23:24:18.506Z,1.30
2022-10-31T23:26:46.689Z,1.17
2022-10-31T23:29:14.982Z,1.23
2022-10-31T23:31:43.206Z,1.33
2022-10-31T23:34:11.264Z,1.13
2022-10-31T23:36:39.523Z,0.80
2022-10-31T23:39:07.668Z,0.68
2022-10-31T23:41:35.929Z,0.90
2022-10-31T23:44:04.110Z,1.05
2022-10-31T23:46:32.384Z,0.98
2022-10-31T23:49:00.575Z,1.20
2022-10-31T23:51:28.807Z,1.02
2022-10-31T23:53:56.843Z,1.13
2022-10-31T23:56:25.467Z,1.13
2022-10-31T23:58:53.598Z,0.90
